Time;durP1;ratioP1;P1;durP2;ratioP2;P2;SDS_P1;SDS_P2;PMS_P1;PMS_P2;Temp;Humidity;BMP_temperature;BMP_pressure;BME280_temperature;BME280_humidity;BME280_pressure;Samples;Min_cycle;Max_cycle;Signal;HPM_P1;HPM_P2
2021/09/19 00:01:43;;;;;;;4.80;4.60;;;;;;;14.00;81.73;101049.72;4349870;32;20070;-69
2021/09/19 00:04:08;;;;;;;6.45;6.15;;;;;;;13.99;81.53;101047.16;4406151;32;20066;-69
2021/09/19 00:06:34;;;;;;;4.80;4.60;;;;;;;14.04;81.74;101047.72;4350326;32;20073;-69
2021/09/19 00:08:59;;;;;;;6.07;5.78;;;;;;;13.98;82.05;101048.94;4342273;32;20097;-70
2021/09/19 00:11:24;;;;;;;4.60;4.40;;;;;;;13.95;81.65;101049.12;4348507;32;20073;-69
2021/09/19 00:13:50;;;;;;;4.82;4.62;;;;;;;13.87;82.26;101046.97;4396746;32;20156;-69
2021/09/19 00:16:15;;;;;;;4.75;4.55;;;;;;;13.83;82.02;101045.47;4390949;32;20069;-69
2021/09/19 00:18:40;;;;;;;4.90;4.70;;;;;;;13.74;82.52;101043.37;4403698;32;20081;-69
2021/09/19 00:21:06;;;;;;;5.12;4.93;;;;;;;13.65;83.08;101042.12;4346371;32;20077;-69
2021/09/19 00:23:31;;;;;;;4.60;4.40;;;;;;;13.55;83.56;101019.87;4399672;32;20070;-69
2021/09/19 00:25:57;;;;;;;5.50;5.25;;;;;;;13.60;83.66;101038.06;4401007;32;20549;-68
2021/09/19 00:28:22;;;;;;;5.10;4.80;;;;;;;13.05;84.24;100998.16;4409304;32;20637;-68
2021/09/19 00:30:47;;;;;;;4.87;4.68;;;;;;;13.52;83.80;101039.38;4400902;32;20123;-70
2021/09/19 00:33:13;;;;;;;5.10;4.90;;;;;;;13.42;83.46;101032.94;4358350;32;21020;-68
2021/09/19 00:35:38;;;;;;;8.80;5.10;;;;;;;13.42;84.37;101038.22;4348724;32;20077;-68
2021/09/19 00:38:03;;;;;;;6.12;5.82;;;;;;;13.37;84.49;101040.28;4399677;32;20077;-68
2021/09/19 00:40:29;;;;;;;4.65;4.45;;;;;;;13.42;84.37;101043.47;4347587;32;20069;-67
2021/09/19 00:42:54;;;;;;;4.82;4.62;;;;;;;13.38;84.71;101035.84;4398611;32;20090;-69
2021/09/19 00:45:21;;;;;;;4.70;4.50;;;;;;;13.37;84.69;101037.66;4347451;32;20589;-68
2021/09/19 00:47:49;;;;;;;4.60;4.40;;;;;;;13.40;84.62;101045.34;4397402;32;20588;-68
2021/09/19 00:50:17;;;;;;;4.62;4.43;;;;;;;13.01;84.69;100996.66;4348696;32;20089;-68
2021/09/19 00:52:43;;;;;;;4.65;4.45;;;;;;;13.21;85.37;101037.66;4392490;32;20128;-68
2021/09/19 00:55:08;;;;;;;6.37;6.07;;;;;;;13.24;85.36;101039.25;4384743;32;20113;-68
2021/09/19 00:57:46;;;;;;;4.50;4.30;;;;;;;13.19;85.55;101050.06;4395574;32;20155;-68
2021/09/19 01:00:13;;;;;;;6.00;5.70;;;;;;;13.15;85.71;101049.41;4397532;32;20096;-68
2021/09/19 01:02:38;;;;;;;4.87;4.68;;;;;;;13.13;85.94;101045.16;4425407;32;20142;-68
2021/09/19 01:05:05;;;;;;;5.90;5.60;;;;;;;12.55;85.86;100967.66;4395312;32;20584;-68
2021/09/19 01:07:31;;;;;;;4.75;4.55;;;;;;;13.03;86.09;101046.59;4423198;32;20074;-68
2021/09/19 01:09:56;;;;;;;5.28;5.07;;;;;;;12.98;86.59;101046.84;4398453;32;20066;-68
2021/09/19 01:12:24;;;;;;;4.97;4.78;;;;;;;12.96;86.95;101040.84;4345912;32;20242;-68
2021/09/19 01:14:50;;;;;;;4.70;4.50;;;;;;;12.92;87.37;101044.56;4401264;32;20070;-68
2021/09/19 01:17:17;;;;;;;4.70;4.50;;;;;;;12.86;87.75;101043.13;4395521;32;20135;-68
2021/09/19 01:19:42;;;;;;;4.78;4.57;;;;;;;12.92;87.50;101041.94;4343729;32;20159;-68
2021/09/19 01:22:08;;;;;;;6.15;5.85;;;;;;;12.88;87.79;101038.62;4393939;32;20097;-69
2021/09/19 01:24:34;;;;;;;4.62;4.43;;;;;;;12.83;87.86;101040.69;4423198;32;20684;-68
2021/09/19 01:26:59;;;;;;;5.95;5.65;;;;;;;12.77;87.65;101035.75;4397038;32;20078;-68
2021/09/19 01:29:25;;;;;;;4.70;4.50;;;;;;;12.75;87.60;101038.47;4396968;32;20074;-68
2021/09/19 01:31:50;;;;;;;4.62;4.43;;;;;;;12.73;88.43;101027.19;4398572;32;20084;-69
2021/09/19 01:34:16;;;;;;;4.50;4.30;;;;;;;12.73;88.50;101031.59;4396994;32;20074;-69
2021/09/19 01:36:41;;;;;;;5.00;4.70;;;;;;;12.75;88.05;101027.94;4340144;32;20074;-69
2021/09/19 01:39:07;;;;;;;5.97;5.68;;;;;;;12.70;88.33;101029.13;4382344;32;20066;-70
2021/09/19 01:41:33;;;;;;;4.80;4.60;;;;;;;12.60;88.70;101023.53;4385597;32;20065;-69
2021/09/19 01:43:58;;;;;;;6.00;5.72;;;;;;;12.54;88.98;101019.44;4403807;32;20078;-69
2021/09/19 01:46:23;;;;;;;4.93;4.72;;;;;;;12.49;89.37;101015.38;4424230;32;20718;-67
2021/09/19 01:48:49;;;;;;;4.80;4.60;;;;;;;12.44;89.20;101017.41;4415755;32;20065;-68
2021/09/19 01:51:14;;;;;;;5.53;5.22;;;;;;;12.42;89.88;101021.91;4421685;32;20072;-69
2021/09/19 01:53:40;;;;;;;5.15;4.95;;;;;;;12.45;90.12;101021.72;4395203;32;20096;-69
2021/09/19 01:56:06;;;;;;;5.55;5.18;;;;;;;12.46;90.25;101011.13;4393452;32;20623;-69
2021/09/19 01:58:31;;;;;;;4.55;4.35;;;;;;;12.47;89.96;101010.19;4431040;32;20305;-69
2021/09/19 02:01:00;;;;;;;5.35;5.12;;;;;;;12.44;90.10;101012.16;4408859;32;20136;-69
2021/09/19 02:03:25;;;;;;;4.65;4.45;;;;;;;12.45;90.30;101009.44;4421846;32;20206;-68
2021/09/19 02:05:51;;;;;;;4.70;4.50;;;;;;;12.51;90.35;101006.47;4412751;32;20127;-69
2021/09/19 02:08:16;;;;;;;4.68;4.47;;;;;;;12.47;90.56;100991.78;4405770;32;20084;-68
2021/09/19 02:10:42;;;;;;;4.80;4.60;;;;;;;12.58;90.50;101004.31;4412821;32;20747;-68
2021/09/19 02:13:07;;;;;;;6.45;6.15;;;;;;;12.58;89.89;100999.06;4407359;32;20080;-69
2021/09/19 02:15:33;;;;;;;4.70;4.50;;;;;;;12.59;89.61;100995.50;4421381;32;20072;-69
2021/09/19 02:17:58;;;;;;;6.20;5.90;;;;;;;12.56;89.52;100998.28;4408545;32;20345;-69
2021/09/19 02:20:23;;;;;;;4.68;4.47;;;;;;;12.49;89.39;100999.59;4421628;32;20888;-69
2021/09/19 02:22:49;;;;;;;4.55;4.35;;;;;;;12.42;89.66;101006.13;4411727;32;20060;-68
2021/09/19 02:25:14;;;;;;;4.80;4.60;;;;;;;12.34;90.00;100998.63;4420175;32;20087;-69
2021/09/19 02:27:40;;;;;;;4.70;4.50;;;;;;;12.28;90.13;100996.34;4421206;32;20684;-68
2021/09/19 02:30:06;;;;;;;6.28;5.97;;;;;;;12.21;90.17;100994.97;4430752;32;20076;-69
2021/09/19 02:32:32;;;;;;;4.55;4.35;;;;;;;12.23;90.54;100993.09;4422043;32;20059;-68
2021/09/19 02:34:57;;;;;;;5.22;5.03;;;;;;;12.22;90.59;100992.25;4405372;32;20430;-69
2021/09/19 02:37:23;;;;;;;4.70;4.50;;;;;;;12.20;91.32;100996.75;4420186;32;20095;-69
2021/09/19 02:39:48;;;;;;;4.70;4.50;;;;;;;12.17;90.98;100995.16;4409578;32;20606;-69
2021/09/19 02:42:13;;;;;;;4.68;4.47;;;;;;;12.12;91.13;100997.16;4425120;32;20072;-68
2021/09/19 02:44:39;;;;;;;4.62;4.43;;;;;;;12.04;91.31;100999.34;4363629;32;20105;-68
2021/09/19 02:47:04;;;;;;;6.07;5.78;;;;;;;12.00;91.35;100999.59;4346566;32;20069;-68
2021/09/19 02:49:29;;;;;;;4.70;4.50;;;;;;;11.97;92.00;100996.22;4399792;32;20341;-68
2021/09/19 02:51:55;;;;;;;5.22;5.00;;;;;;;11.91;91.82;100983.38;4395354;32;20590;-69
2021/09/19 02:54:20;;;;;;;4.50;4.30;;;;;;;12.01;92.24;100993.41;4423310;32;20409;-69
2021/09/19 02:56:45;;;;;;;4.50;4.30;;;;;;;12.01;92.18;100993.41;4391891;32;20347;-69
2021/09/19 02:59:11;;;;;;;6.15;5.85;;;;;;;12.01;92.16;100977.62;4408491;32;20115;-69
2021/09/19 03:01:36;;;;;;;4.60;4.40;;;;;;;12.07;92.29;100974.69;4344259;32;20484;-69
2021/09/19 03:04:01;;;;;;;6.35;6.05;;;;;;;12.05;92.12;100971.28;4389771;32;20081;-69
2021/09/19 03:06:27;;;;;;;4.80;4.60;;;;;;;12.03;91.91;100981.03;4400289;32;20665;-69
2021/09/19 03:08:53;;;;;;;4.37;4.18;;;;;;;11.96;92.24;100973.47;4389565;32;20077;-68
2021/09/19 03:11:18;;;;;;;4.50;4.30;;;;;;;11.93;92.39;100986.78;4395475;32;20149;-69
2021/09/19 03:13:45;;;;;;;5.07;4.78;;;;;;;11.88;92.38;100980.88;4391142;32;20062;-69
2021/09/19 03:16:10;;;;;;;6.95;5.70;;;;;;;11.82;92.31;100985.63;4345351;32;20242;-69
2021/09/19 03:18:35;;;;;;;4.50;4.30;;;;;;;11.78;92.58;100975.25;4398333;32;20675;-69
2021/09/19 03:21:01;;;;;;;6.00;5.70;;;;;;;11.74;92.66;100989.50;4396260;32;20077;-69
2021/09/19 03:23:26;;;;;;;4.40;4.20;;;;;;;11.72;92.72;100983.47;4347765;32;20070;-69
2021/09/19 03:25:51;;;;;;;13.80;4.70;;;;;;;11.71;92.66;100978.31;4395336;32;20076;-72
2021/09/19 03:28:17;;;;;;;4.50;4.30;;;;;;;11.69;92.91;100983.63;4355465;32;20086;-69
2021/09/19 03:30:42;;;;;;;4.50;4.30;;;;;;;11.66;92.95;100985.56;4344332;32;20076;-69
2021/09/19 03:33:08;;;;;;;5.80;5.57;;;;;;;11.45;92.88;100950.75;4320670;32;20437;-69
2021/09/19 03:35:33;;;;;;;4.70;4.50;;;;;;;11.45;92.79;100954.22;4332709;32;20100;-69
2021/09/19 03:37:58;;;;;;;5.85;5.60;;;;;;;11.61;93.07;100984.97;4320522;32;20066;-69
2021/09/19 03:40:24;;;;;;;4.47;4.28;;;;;;;11.64;93.47;100984.81;4336804;32;20114;-69
2021/09/19 03:42:51;;;;;;;4.50;4.30;;;;;;;11.59;92.98;100985.06;4327236;32;20078;-69
2021/09/19 03:45:17;;;;;;;7.32;7.03;;;;;;;11.54;93.08;100979.16;4325326;32;20566;-69
2021/09/19 03:47:43;;;;;;;4.47;4.28;;;;;;;11.52;93.09;100984.50;4358393;32;20880;-68
2021/09/19 03:50:09;;;;;;;5.93;5.65;;;;;;;11.48;93.27;100982.97;4327305;32;20235;-69
2021/09/19 03:52:34;;;;;;;4.30;4.10;;;;;;;11.23;93.00;100970.25;4357341;32;20608;-69
2021/09/19 03:54:59;;;;;;;5.93;5.68;;;;;;;11.41;93.40;100981.59;4333214;32;20070;-68
2021/09/19 03:57:25;;;;;;;4.60;4.40;;;;;;;11.39;93.66;100983.44;4325501;32;20070;-69
2021/09/19 03:59:50;;;;;;;4.70;4.50;;;;;;;11.35;93.74;100982.75;4322454;32;20663;-69
2021/09/19 04:02:15;;;;;;;4.60;4.40;;;;;;;11.29;93.54;100990.09;4324067;32;20393;-69
2021/09/19 04:04:41;;;;;;;4.53;4.32;;;;;;;11.26;93.75;100988.47;4339195;32;20309;-69
2021/09/19 04:07:06;;;;;;;5.85;5.60;;;;;;;11.23;93.98;100982.53;4338217;32;20923;-68
2021/09/19 04:09:31;;;;;;;4.40;4.20;;;;;;;11.20;93.88;100995.81;4337719;32;20066;-68
2021/09/19 04:11:57;;;;;;;5.45;5.22;;;;;;;11.16;94.17;100997.72;4342392;32;20058;-69
2021/09/19 04:14:23;;;;;;;4.30;4.10;;;;;;;11.12;93.66;100993.56;4335275;32;20075;-68
2021/09/19 04:16:48;;;;;;;4.75;4.55;;;;;;;11.07;94.54;100990.31;4334973;32;20081;-68
2021/09/19 04:19:13;;;;;;;4.90;4.70;;;;;;;11.01;94.27;100986.22;4337338;32;21037;-68
2021/09/19 04:21:39;;;;;;;4.50;4.30;;;;;;;10.95;94.09;100989.16;4334649;32;20078;-68
2021/09/19 04:24:04;;;;;;;6.07;5.78;;;;;;;10.83;95.03;100977.47;4331506;32;20078;-69
2021/09/19 04:26:30;;;;;;;4.95;4.75;;;;;;;10.88;94.46;100991.22;4339824;32;20800;-68
2021/09/19 04:28:55;;;;;;;4.85;4.65;;;;;;;10.84;95.34;100992.28;4322296;32;20089;-69
2021/09/19 04:31:20;;;;;;;4.57;4.37;;;;;;;10.78;95.18;100996.06;4311021;32;20454;-69
2021/09/19 04:33:46;;;;;;;4.62;4.43;;;;;;;10.74;94.68;100991.91;4314775;32;20137;-69
2021/09/19 04:36:11;;;;;;;5.93;5.65;;;;;;;10.71;94.68;100994.66;4324242;32;20110;-68
2021/09/19 04:38:36;;;;;;;4.70;4.50;;;;;;;10.69;94.95;100996.50;4324714;32;20733;-68
2021/09/19 04:41:02;;;;;;;6.20;5.90;;;;;;;10.69;95.67;101007.00;4319660;32;20089;-68
2021/09/19 04:43:28;;;;;;;4.70;4.50;;;;;;;10.68;95.09;101004.44;4417385;32;20072;-68
2021/09/19 04:45:53;;;;;;;4.50;4.30;;;;;;;9.43;95.60;100810.09;4409194;32;20159;-69
2021/09/19 04:48:19;;;;;;;4.32;4.12;;;;;;;10.62;95.36;101008.22;4419888;32;20573;-68
2021/09/19 04:50:44;;;;;;;4.60;4.40;;;;;;;10.57;95.74;101004.97;4439782;32;20081;-68
2021/09/19 04:53:10;;;;;;;6.22;5.93;;;;;;;10.54;95.88;100999.84;4424340;32;20127;-67
2021/09/19 04:55:35;;;;;;;4.62;4.43;;;;;;;10.50;95.77;101007.03;4415181;32;20057;-68
2021/09/19 04:58:00;;;;;;;5.75;5.45;;;;;;;10.48;95.40;101003.59;4421037;32;20442;-68
2021/09/19 05:00:26;;;;;;;4.50;4.30;;;;;;;10.15;96.24;100958.78;4411151;32;20139;-68
2021/09/19 05:02:51;;;;;;;4.40;4.20;;;;;;;10.43;96.08;101005.63;4415344;32;20061;-68
2021/09/19 05:05:16;;;;;;;4.37;4.18;;;;;;;10.43;96.16;101010.88;4405665;32;22380;-68
2021/09/19 05:07:42;;;;;;;4.32;4.12;;;;;;;10.04;96.22;100951.41;4436813;32;20702;-68
2021/09/19 05:10:08;;;;;;;5.55;5.30;;;;;;;10.40;96.76;101012.78;4406364;32;20345;-69
2021/09/19 05:12:33;;;;;;;4.40;4.20;;;;;;;10.38;96.91;101005.84;4406054;32;20064;-68
2021/09/19 05:14:58;;;;;;;6.25;5.85;;;;;;;10.38;96.22;101008.47;4404230;32;20095;-69
2021/09/19 05:17:24;;;;;;;4.50;4.30;;;;;;;10.35;96.52;101011.22;4447054;32;20162;-69
2021/09/19 05:19:49;;;;;;;4.53;4.32;;;;;;;10.34;96.04;101012.16;4415856;32;20575;-68
2021/09/19 05:22:15;;;;;;;4.37;4.18;;;;;;;10.33;96.64;101004.34;4432626;32;20578;-69
2021/09/19 05:24:40;;;;;;;4.35;4.15;;;;;;;10.36;96.67;101002.44;4425196;32;20157;-70
2021/09/19 05:27:05;;;;;;;5.70;5.47;;;;;;;10.48;97.46;101008.00;4406376;32;20071;-70
2021/09/19 05:29:31;;;;;;;4.70;4.50;;;;;;;10.57;97.26;101010.22;4408917;32;20091;-69
2021/09/19 05:31:56;;;;;;;4.95;4.75;;;;;;;10.58;97.16;100985.66;4407347;32;20655;-68
2021/09/19 05:34:21;;;;;;;4.30;4.10;;;;;;;10.72;97.28;101006.87;4409444;32;20084;-68
2021/09/19 05:36:47;;;;;;;4.50;4.30;;;;;;;10.72;97.14;101006.87;4408622;32;20068;-68
2021/09/19 05:39:12;;;;;;;5.30;5.10;;;;;;;10.73;96.92;101003.31;4416674;32;20793;-69
2021/09/19 05:41:37;;;;;;;4.22;4.03;;;;;;;10.80;96.96;101008.25;4421846;32;20080;-68
2021/09/19 05:44:03;;;;;;;5.75;5.53;;;;;;;10.90;97.12;101015.63;4409143;32;20073;-69
2021/09/19 05:46:28;;;;;;;4.30;4.10;;;;;;;11.00;97.15;101013.37;4421768;32;20072;-66
2021/09/19 05:48:54;;;;;;;4.60;4.40;;;;;;;11.07;96.97;101008.72;4416036;32;20079;-69
2021/09/19 05:51:21;;;;;;;4.70;4.50;;;;;;;11.17;97.54;101016.03;4420745;32;20064;-68
2021/09/19 05:53:47;;;;;;;4.50;4.30;;;;;;;10.94;96.45;100964.69;4396177;32;20092;-69
2021/09/19 05:56:12;;;;;;;5.25;5.05;;;;;;;11.26;96.60;101012.09;4420307;32;20088;-69
2021/09/19 05:58:38;;;;;;;4.70;4.50;;;;;;;11.32;96.31;101009.16;4431458;32;20081;-68
2021/09/19 06:01:03;;;;;;;6.18;5.87;;;;;;;11.46;95.88;101031.28;4408184;32;20139;-68
2021/09/19 06:03:28;;;;;;;4.50;4.30;;;;;;;11.53;95.76;101023.00;4424388;32;20057;-68
2021/09/19 06:05:54;;;;;;;4.47;4.28;;;;;;;11.58;95.53;101013.09;4408690;32;20139;-69
2021/09/19 06:08:19;;;;;;;4.40;4.20;;;;;;;11.73;95.13;101029.03;4410802;32;20321;-69
2021/09/19 06:10:44;;;;;;;4.43;4.22;;;;;;;11.84;94.66;101020.56;4407339;32;20085;-68
2021/09/19 06:13:10;;;;;;;5.93;5.65;;;;;;;11.98;94.59;101028.62;4401382;32;20906;-68
2021/09/19 06:15:35;;;;;;;4.50;4.30;;;;;;;12.13;94.67;101030.44;4424039;32;20080;-68
2021/09/19 06:18:00;;;;;;;6.25;5.95;;;;;;;12.30;94.36;101026.06;4407018;32;20582;-68
2021/09/19 06:20:26;;;;;;;4.60;4.40;;;;;;;12.46;94.11;101031.34;4422532;32;20157;-68
2021/09/19 06:22:51;;;;;;;4.70;4.50;;;;;;;12.63;93.51;101028.62;4408448;32;20207;-68
2021/09/19 06:25:17;;;;;;;4.40;4.20;;;;;;;12.76;92.87;101018.25;4418195;32;20076;-69
2021/09/19 06:27:42;;;;;;;4.62;4.43;;;;;;;12.91;92.78;101022.66;4429505;32;20487;-69
2021/09/19 06:30:08;;;;;;;6.18;5.87;;;;;;;13.03;92.08;101015.84;4411796;32;20730;-68
2021/09/19 06:32:33;;;;;;;4.60;4.40;;;;;;;13.12;91.81;101015.28;4432783;32;20087;-68
2021/09/19 06:34:59;;;;;;;5.10;4.90;;;;;;;11.90;90.94;100808.09;4405495;32;20069;-70
2021/09/19 06:37:24;;;;;;;4.80;4.60;;;;;;;13.33;90.54;101026.44;4431052;32;20577;-69
2021/09/19 06:39:49;;;;;;;5.10;4.80;;;;;;;13.39;89.71;101019.94;4408231;32;20342;-68
2021/09/19 06:42:15;;;;;;;4.57;4.37;;;;;;;13.26;89.22;100995.22;4429395;32;20551;-68
2021/09/19 06:44:40;;;;;;;4.62;4.43;;;;;;;13.58;88.85;101024.97;4433008;32;20084;-70
2021/09/19 06:47:05;;;;;;;6.22;5.93;;;;;;;13.63;88.33;101022.91;4406664;32;20082;-69
2021/09/19 06:49:31;;;;;;;4.82;4.60;;;;;;;13.76;87.92;101028.28;4418292;32;20969;-70
2021/09/19 06:51:56;;;;;;;5.37;5.15;;;;;;;13.91;87.18;101022.09;4409570;32;20092;-70
2021/09/19 06:54:22;;;;;;;4.53;4.32;;;;;;;13.91;87.05;100997.47;4422192;32;20064;-70
2021/09/19 06:56:48;;;;;;;4.87;4.68;;;;;;;14.18;85.95;101018.69;4410302;32;20069;-68
2021/09/19 06:59:13;;;;;;;4.97;4.78;;;;;;;14.25;85.28;101009.47;4420286;32;20409;-68
2021/09/19 07:01:39;;;;;;;4.62;4.43;;;;;;;14.49;84.08;101019.41;4420711;32;20215;-68
2021/09/19 07:04:04;;;;;;;6.10;5.80;;;;;;;14.62;83.45;101025.62;4422921;32;20064;-70
2021/09/19 07:06:30;;;;;;;4.90;4.70;;;;;;;14.61;82.61;101018.66;4421945;32;20323;-69
2021/09/19 07:08:56;;;;;;;5.53;5.22;;;;;;;14.81;81.14;101022.66;4421927;32;20069;-70
2021/09/19 07:11:21;;;;;;;4.90;4.70;;;;;;;14.93;81.40;101019.22;4422565;32;20080;-69
2021/09/19 07:13:47;;;;;;;4.72;4.53;;;;;;;15.07;81.00;101023.59;4421383;32;20071;-69
2021/09/19 07:16:12;;;;;;;5.75;5.53;;;;;;;15.24;80.62;101019.00;4412787;32;20068;-68
2021/09/19 07:18:37;;;;;;;5.10;4.90;;;;;;;15.35;79.69;101027.03;4434979;32;20469;-67
2021/09/19 07:21:03;;;;;;;6.20;5.90;;;;;;;15.29;78.30;100993.91;4405501;32;20071;-67
2021/09/19 07:23:28;;;;;;;4.90;4.70;;;;;;;15.31;77.47;101022.91;4423676;32;20138;-66
2021/09/19 07:25:53;;;;;;;5.60;5.30;;;;;;;14.35;77.37;100870.66;4409346;32;20076;-67
2021/09/19 07:28:19;;;;;;;5.18;4.97;;;;;;;15.41;77.23;101025.78;4408669;32;20150;-67
2021/09/19 07:30:44;;;;;;;4.85;4.65;;;;;;;15.40;76.95;101017.00;4408861;32;20987;-67
2021/09/19 07:33:10;;;;;;;6.72;6.43;;;;;;;15.62;76.63;101021.69;4405858;32;20608;-67
2021/09/19 07:35:36;;;;;;;4.78;4.57;;;;;;;15.72;75.13;101021.91;4424374;32;20057;-67
2021/09/19 07:38:01;;;;;;;6.50;6.20;;;;;;;15.85;75.74;101022.78;4407128;32;20484;-69
2021/09/19 07:40:28;;;;;;;4.90;4.70;;;;;;;15.98;74.54;101020.16;4422190;32;20083;-69
2021/09/19 07:42:53;;;;;;;5.20;5.00;;;;;;;16.11;74.38;101023.59;4402151;32;20220;-71
2021/09/19 07:45:19;;;;;;;5.15;4.95;;;;;;;16.02;73.61;101028.72;4346287;32;20155;-69
2021/09/19 07:47:44;;;;;;;4.75;4.55;;;;;;;16.15;72.96;101029.53;4416863;32;20223;-69
2021/09/19 07:50:11;;;;;;;6.60;6.30;;;;;;;15.66;73.76;100946.44;4392885;32;20464;-69
2021/09/19 07:52:36;;;;;;;4.60;4.40;;;;;;;16.18;73.13;101026.69;4402127;32;20066;-69
2021/09/19 07:55:01;;;;;;;6.07;5.78;;;;;;;16.42;72.86;101015.31;4412470;32;20072;-69
2021/09/19 07:57:27;;;;;;;4.97;4.78;;;;;;;16.53;72.65;101026.81;4346297;32;20108;-69
2021/09/19 07:59:52;;;;;;;5.15;4.93;;;;;;;16.57;73.10;101024.78;4403690;32;20551;-69
2021/09/19 08:02:18;;;;;;;5.60;5.25;;;;;;;16.63;71.79;101019.03;4346546;32;20544;-68
2021/09/19 08:04:44;;;;;;;4.97;4.78;;;;;;;16.82;71.88;101033.63;4385162;32;20406;-69
2021/09/19 08:07:09;;;;;;;4.97;4.78;;;;;;;16.92;71.40;101039.97;4397344;32;20077;-68
2021/09/19 08:09:35;;;;;;;5.25;5.05;;;;;;;17.06;71.15;101036.28;4348705;32;20077;-69
2021/09/19 08:12:00;;;;;;;6.10;5.80;;;;;;;16.46;69.61;100948.75;4403557;32;20073;-69
2021/09/19 08:14:25;;;;;;;4.90;4.70;;;;;;;17.14;70.23;101041.88;4391933;32;20062;-69
2021/09/19 08:16:51;;;;;;;5.25;5.05;;;;;;;16.58;70.28;100957.59;4401995;32;20081;-69
2021/09/19 08:19:16;;;;;;;4.95;4.75;;;;;;;16.91;70.04;101043.56;4386677;32;20515;-69
2021/09/19 08:21:42;;;;;;;5.10;4.90;;;;;;;16.93;69.70;101046.94;4350596;32;20070;-69
2021/09/19 08:24:08;;;;;;;6.55;6.25;;;;;;;17.02;70.95;101048.94;4401692;32;20109;-69
2021/09/19 08:26:33;;;;;;;5.00;4.80;;;;;;;17.19;69.96;101046.84;4351224;32;20688;-69
2021/09/19 08:28:59;;;;;;;5.05;4.85;;;;;;;17.28;68.44;101040.81;4405364;32;20148;-69
2021/09/19 08:31:24;;;;;;;4.90;4.70;;;;;;;17.38;67.91;101041.84;4397457;32;20886;-69
2021/09/19 08:33:50;;;;;;;5.00;4.80;;;;;;;17.29;68.58;101013.34;4405149;32;20593;-69
2021/09/19 08:36:15;;;;;;;5.65;5.37;;;;;;;17.63;67.04;101055.91;4414182;32;20357;-69
2021/09/19 08:38:41;;;;;;;5.00;4.80;;;;;;;17.68;67.50;101061.69;4407503;32;20451;-69
2021/09/19 08:41:06;;;;;;;6.62;6.22;;;;;;;17.62;67.14;101051.53;4389185;32;20122;-69
2021/09/19 08:43:31;;;;;;;4.90;4.70;;;;;;;17.68;66.13;101028.06;4399684;32;20081;-69
2021/09/19 08:45:57;;;;;;;5.70;5.45;;;;;;;17.84;65.26;101054.31;4404611;32;20544;-70
2021/09/19 08:48:22;;;;;;;4.97;4.78;;;;;;;18.14;65.12;101066.12;4351277;32;20177;-69
2021/09/19 08:50:52;;;;;;;5.10;4.90;;;;;;;18.21;64.64;101071.84;4405169;32;20095;-69
2021/09/19 08:53:18;;;;;;;5.00;4.80;;;;;;;18.11;65.30;101067.22;4387867;32;20117;-69
2021/09/19 08:55:43;;;;;;;5.15;4.95;;;;;;;18.24;65.88;101053.84;4349748;32;20089;-69
2021/09/19 08:58:09;;;;;;;6.68;6.37;;;;;;;18.28;63.07;101063.25;4400135;32;20569;-69
2021/09/19 09:00:48;;;;;;;5.60;5.30;;;;;;;18.39;63.12;101067.72;4349163;32;20255;-69
2021/09/19 09:03:15;;;;;;;6.30;6.00;;;;;;;18.64;64.44;101069.28;4411735;32;20389;-69
2021/09/19 09:05:41;;;;;;;5.32;5.07;;;;;;;18.65;63.63;101065.62;4430827;32;20066;-69
2021/09/19 09:08:09;;;;;;;6.70;6.40;;;;;;;18.72;63.02;101072.16;4349257;32;20080;-69
2021/09/19 09:10:37;;;;;;;5.30;5.10;;;;;;;19.05;61.70;101073.06;4418460;32;20077;-69
2021/09/19 09:13:04;;;;;;;5.72;5.43;;;;;;;18.28;60.86;100929.56;4392112;32;20162;-70
2021/09/19 09:15:49;;;;;;;5.45;5.25;;;;;;;19.32;60.05;101061.09;4359433;32;20559;-68
2021/09/19 09:18:35;;;;;;;5.70;5.40;;;;;;;19.25;59.83;101073.25;4399310;32;20674;-69
2021/09/19 09:21:08;;;;;;;7.00;6.70;;;;;;;19.34;59.11;101069.81;4417646;32;20545;-68
2021/09/19 09:23:44;;;;;;;5.28;5.07;;;;;;;19.56;58.18;101068.84;4364594;32;20145;-69
2021/09/19 09:26:17;;;;;;;7.00;6.60;;;;;;;19.79;57.69;101077.59;4415204;32;20073;-69
2021/09/19 09:28:50;;;;;;;5.80;5.50;;;;;;;19.92;56.48;101072.91;4403048;32;20433;-70
2021/09/19 09:31:22;;;;;;;5.20;5.00;;;;;;;20.18;55.29;101066.28;4424411;32;20066;-69
2021/09/19 09:34:05;;;;;;;5.15;4.95;;;;;;;20.26;55.76;101072.62;4404966;32;20066;-69
2021/09/19 09:36:35;;;;;;;5.25;5.05;;;;;;;20.08;56.27;101061.75;4444392;32;20180;-69
2021/09/19 09:39:00;;;;;;;6.43;6.12;;;;;;;20.29;54.67;101067.03;4414647;32;20097;-70
2021/09/19 09:41:41;;;;;;;5.62;5.32;;;;;;;20.45;54.08;101060.37;4414089;32;20556;-69
2021/09/19 09:44:28;;;;;;;6.70;6.40;;;;;;;20.30;54.60;101066.06;4401430;32;20077;-69
2021/09/19 09:46:54;;;;;;;5.37;5.18;;;;;;;20.57;54.32;101056.63;4423577;32;20646;-70
2021/09/19 09:49:51;;;;;;;5.10;4.90;;;;;;;20.53;53.87;101023.22;4347678;32;20085;-68
2021/09/19 09:52:16;;;;;;;5.30;5.10;;;;;;;20.66;51.69;101061.16;4373956;32;20073;-69
2021/09/19 09:55:04;;;;;;;5.27;5.07;;;;;;;20.58;52.92;101052.97;4375321;32;20769;-70
2021/09/19 09:57:35;;;;;;;5.35;5.12;;;;;;;20.52;53.38;101049.00;4366016;32;20180;-69
2021/09/19 10:00:21;;;;;;;6.62;6.32;;;;;;;20.49;52.00;101053.78;4442548;32;20599;-68
2021/09/19 10:02:50;;;;;;;5.22;5.03;;;;;;;20.67;51.87;101030.84;4414729;32;20587;-69
2021/09/19 10:05:16;;;;;;;5.35;5.15;;;;;;;20.84;51.68;101045.31;4398117;32;20184;-69
2021/09/19 10:07:42;;;;;;;5.20;5.00;;;;;;;20.65;51.92;101042.66;4396781;32;20678;-68
2021/09/19 10:10:10;;;;;;;6.70;6.40;;;;;;;20.78;52.39;100991.69;4400859;32;20078;-69
2021/09/19 10:12:35;;;;;;;5.35;5.15;;;;;;;21.12;51.59;101042.81;4417571;32;20065;-68
2021/09/19 10:15:01;;;;;;;6.95;6.65;;;;;;;21.28;50.21;101036.91;4400525;32;20073;-69
2021/09/19 10:17:31;;;;;;;5.30;5.10;;;;;;;21.09;50.60;101041.28;4397546;32;20068;-69
2021/09/19 10:19:56;;;;;;;5.70;5.47;;;;;;;21.23;51.08;101031.19;4402567;32;20119;-69
2021/09/19 10:22:25;;;;;;;5.40;5.20;;;;;;;21.85;49.71;101039.66;4400441;32;20664;-69
2021/09/19 10:24:50;;;;;;;5.40;5.20;;;;;;;22.23;49.16;101043.16;4397510;32;20611;-69
2021/09/19 10:27:23;;;;;;;5.45;5.25;;;;;;;22.00;47.59;101032.84;4392354;32;20216;-69
2021/09/19 10:30:13;;;;;;;5.45;5.18;;;;;;;21.53;48.52;101035.53;4404591;32;20918;-68
2021/09/19 10:32:46;;;;;;;5.50;5.20;;;;;;;21.21;50.06;101038.44;4418528;32;20069;-68
2021/09/19 10:35:18;;;;;;;6.70;6.40;;;;;;;21.58;50.25;101032.41;4348131;32;20414;-69
2021/09/19 10:37:53;;;;;;;5.45;5.25;;;;;;;21.10;49.87;101036.78;4428143;32;20319;-69
2021/09/19 10:40:38;;;;;;;5.30;5.10;;;;;;;21.22;48.35;101032.97;4361963;32;20437;-69
2021/09/19 10:43:15;;;;;;;6.75;6.45;;;;;;;20.81;49.29;101029.59;4423633;32;20225;-69
2021/09/19 10:45:42;;;;;;;5.75;5.45;;;;;;;20.69;50.75;101028.88;4351868;32;20156;-68
2021/09/19 10:48:15;;;;;;;6.65;6.35;;;;;;;20.59;51.26;101030.69;4396644;32;20168;-68
2021/09/19 10:50:42;;;;;;;5.32;5.12;;;;;;;20.20;52.46;101035.03;4350781;32;20061;-68
2021/09/19 10:53:25;;;;;;;6.53;6.22;;;;;;;20.17;53.54;101022.81;4397578;32;20078;-69
2021/09/19 10:55:56;;;;;;;5.95;5.65;;;;;;;18.69;53.92;100842.91;4360233;32;20077;-68
2021/09/19 10:58:27;;;;;;;5.50;5.20;;;;;;;19.89;54.49;101032.38;4410728;32;20117;-69
2021/09/19 11:01:19;;;;;;;5.80;5.50;;;;;;;19.05;54.18;100921.44;4400718;32;20096;-68
2021/09/19 11:04:08;;;;;;;5.30;5.10;;;;;;;20.14;53.70;101028.41;4403625;32;20093;-69
2021/09/19 11:06:35;;;;;;;5.55;5.30;;;;;;;19.97;54.64;101037.88;4406949;32;20212;-68
2021/09/19 11:09:22;;;;;;;6.72;6.43;;;;;;;19.95;53.11;101033.66;4341611;32;20239;-69
2021/09/19 11:12:05;;;;;;;5.70;5.40;;;;;;;20.28;53.01;101035.19;4402617;32;20062;-69
2021/09/19 11:14:56;;;;;;;5.22;5.03;;;;;;;20.23;53.44;101040.09;4419548;32;20316;-68
2021/09/19 11:17:22;;;;;;;5.90;5.60;;;;;;;20.19;52.67;101039.53;4429250;32;20591;-69
2021/09/19 11:20:09;;;;;;;5.70;5.40;;;;;;;19.88;53.52;101044.81;4360062;32;20492;-69
2021/09/19 11:22:35;;;;;;;5.43;5.22;;;;;;;19.92;53.14;101042.75;4423980;32;20107;-69
2021/09/19 11:25:01;;;;;;;7.03;6.72;;;;;;;19.84;53.31;101038.06;4411856;32;20425;-69